Texline, TX (79087)

2:03 PM CDT on July 29, 2014 (GMT -0500)
Clayton Municipal (KCAO) Elev 4970 ft | 36.45 °N, 103.15 °W | Change Station
Active Advisory: Flash Flood Watch

Current weather conditions updated 8 minutes ago

Clear
Clear
79 °F
Feels Like 79 °F
N
17
Wind Variable Wind from SSW
Gusts 24 mph

Today is forecast to be Warmer than yesterday. Thunderstorms, some may contain heavy rain.

Today
High -- | Low -- °F
--% Chance of Precip.
Yesterday
High -- | Low -- °F
Precip. -- in
6:56 AM 9:00 PM
Waxing Crescent, 7% visible
Pressure 30.04 in
Visibility 10.0 miles
Clouds Clear
Dew Point 58 °F
Humidity 48%
Rainfall 0.00 in
Snow Depth Not available.
UV 13 out of 12
Pollen 1.20 out of 12
Air Quality Not available.
Flu Activity Not available.
METAR KCAO 291855Z AUTO 20015G21KT 10SM CLR 26/14 A3023 RMK AO2 SLP172 T02610144

More Conditions Fewer Conditions

Pressure 30.04 in
Visibility 10.0 miles
Clouds Clear
Dew Point 58 °F
Humidity 48%
Rainfall 0.00 in
Snow Depth Not available.
UV 13 out of 12
Pollen 1.20 out of 12
Air Quality Not available.
Flu Activity Not available.
METAR KCAO 291855Z AUTO 20015G21KT 10SM CLR 26/14 A3023 RMK AO2 SLP172 T02610144

More Conditions Fewer Conditions

10-Day Weather Forecast

Almanac

Astronomy

Jul. 29, 2014 Rise Set
Actual Time 6:56 AM CDT 9:00 PM CDT
Civil Twilight 6:27 AM CDT 9:28 PM CDT
Nautical Twilight 5:52 AM CDT 10:03 PM CDT
Astronomical Twilight 5:14 AM CDT 10:41 PM CDT
Moon 9:28 AM CDT 10:20 PM CDT
Length of Visible Light 15h 01m
Length of Day
14h 04m
Tomorrow will be 1m 39s shorter.
Waxing Crescent, 7% of the Moon is Illuminated
Today
Waxing Crescent
Aug 3
First Quarter
Aug 10
Full
Aug 17
Last Quarter
Aug 25
New

Today's Extremes

State Highs State Lows

Community

WunderPhotos

Upload Photos

1,738,829 photos uploaded!

WunderBlogs® & News

By Dr. Jeff Masters
Director of Meteorology, Weather Underground
By Kari Strenfel
Meteorologist, Weather Underground
By Christopher C. Burt
Weather Historian, Weather Underground
July 29, 2014
July 29, 2014
July 29, 2014

Nearby

Snow Depth

Station Depth Elevation
No new snow has been reported.

Earthquake Activity

City Distance Mag. Time & Date
No recent earthquake activity has been reported nearby.
Minimum magnitude displayed is 2.5.

Coastal Water Temperatures

Place Temperature
No Stations Reporting

Nearby Weather Stations

Station Location Temp. Heat Index Dew Point Humidity Wind Precip. Elev Updated Type
APRSWXNET Sedan NM , Sedan, NM 75 °F 77 °F 60 °F 60% SSE  at  16 mph 0.00 in / hr 4681 ft 12:28 PM MDT MADIS

Show More Stations Show Fewer Stations